createdAt,value
2022-10-26T00:00:28.671Z,24.40
2022-10-26T00:03:34.701Z,24.40
2022-10-26T00:06:40.730Z,24.50
2022-10-26T00:09:46.165Z,24.50
2022-10-26T00:12:52.785Z,24.50
2022-10-26T00:16:04.822Z,24.40
2022-10-26T00:19:22.852Z,24.40
2022-10-26T00:22:28.270Z,24.40
2022-10-26T00:25:34.904Z,24.40
2022-10-26T00:28:40.939Z,24.40
2022-10-26T00:31:58.971Z,24.40
2022-10-26T00:35:15.843Z,24.50
2022-10-26T00:38:29.033Z,24.40
2022-10-26T00:41:35.070Z,24.40
2022-10-26T00:45:11.100Z,24.40
2022-10-26T00:48:23.132Z,24.40
2022-10-26T00:51:29.158Z,24.40
2022-10-26T00:54:35.189Z,24.40
2022-10-26T00:57:41.218Z,24.40
2022-10-26T01:00:47.246Z,24.50
2022-10-26T01:03:59.369Z,24.40
2022-10-26T01:07:04.646Z,24.40
2022-10-26T01:10:11.340Z,24.40
2022-10-26T01:13:17.369Z,24.40
2022-10-26T01:16:42.782Z,24.40
2022-10-26T01:20:29.435Z,24.40
2022-10-26T01:23:41.470Z,24.40
2022-10-26T01:27:05.505Z,24.40
2022-10-26T01:30:41.543Z,24.40
2022-10-26T01:33:59.574Z,24.40
2022-10-26T01:37:17.606Z,24.40
2022-10-26T01:40:29.638Z,24.40
2022-10-26T01:43:35.668Z,24.40
2022-10-26T01:46:47.697Z,24.40
2022-10-26T01:50:05.730Z,24.40
2022-10-26T01:53:05.753Z,24.40
2022-10-26T01:56:17.782Z,24.40
2022-10-26T01:59:47.825Z,24.40
2022-10-26T02:03:17.899Z,24.40
2022-10-26T02:06:35.894Z,24.40
2022-10-26T02:09:47.926Z,24.40
2022-10-26T02:13:17.956Z,24.40
2022-10-26T02:16:47.988Z,24.40
2022-10-26T02:20:18.025Z,24.40
2022-10-26T03:05:15.006Z,24.40
2022-10-26T03:37:20.942Z,24.30
2022-10-26T03:40:54.746Z,24.30
2022-10-26T03:44:09.004Z,24.30
2022-10-26T03:47:14.725Z,24.30
2022-10-26T03:50:27.064Z,24.30
2022-10-26T03:53:32.787Z,24.30
2022-10-26T03:56:45.131Z,24.30
2022-10-26T03:59:50.853Z,24.30
2022-10-26T04:02:57.197Z,24.30
2022-10-26T04:06:02.910Z,24.20
2022-10-26T04:09:06.999Z,24.30
2022-10-26T04:12:20.957Z,24.30
2022-10-26T04:15:33.318Z,24.30
2022-10-26T04:18:39.010Z,24.30
2022-10-26T04:21:45.385Z,24.30
2022-10-26T04:24:51.063Z,24.30
2022-10-26T04:28:03.448Z,24.30
2022-10-26T04:31:15.115Z,24.30
2022-10-26T04:34:21.147Z,24.30
2022-10-26T04:37:27.180Z,24.30
2022-10-26T04:40:33.205Z,24.30
2022-10-26T04:44:15.239Z,24.30
2022-10-26T04:47:27.619Z,24.30
2022-10-26T04:50:29.777Z,24.30
2022-10-26T04:53:33.329Z,24.30
2022-10-26T04:56:39.395Z,24.30
2022-10-26T04:59:39.401Z,24.30
2022-10-26T05:02:51.419Z,24.30
2022-10-26T05:05:55.526Z,24.30
2022-10-26T05:09:00.480Z,24.30
2022-10-26T05:12:01.586Z,24.30
2022-10-26T05:15:08.655Z,24.30
2022-10-26T05:18:31.649Z,24.30
2022-10-26T05:21:37.722Z,24.30
2022-10-26T05:24:45.952Z,24.30
2022-10-26T05:27:49.743Z,24.30
2022-10-26T05:30:55.771Z,24.30
2022-10-26T05:34:07.809Z,24.30
2022-10-26T05:37:13.762Z,24.30
2022-10-26T05:40:19.868Z,24.30
2022-10-26T05:43:25.899Z,24.30
2022-10-26T05:46:31.932Z,24.30
2022-10-26T05:49:39.870Z,24.30
2022-10-26T05:52:43.987Z,24.30
2022-10-26T05:55:56.013Z,24.40
2022-10-26T06:34:51.724Z,24.40
2022-10-26T06:37:20.781Z,24.40
2022-10-26T06:39:54.042Z,24.40
2022-10-26T06:42:23.774Z,24.40
2022-10-26T06:44:52.752Z,24.40
2022-10-26T06:47:31.179Z,24.40
2022-10-26T06:50:10.586Z,24.30
2022-10-26T06:52:47.179Z,24.40
2022-10-26T06:55:16.982Z,24.40
2022-10-26T06:57:45.899Z,24.40
2022-10-26T07:00:20.990Z,24.40
2022-10-26T07:02:52.089Z,24.40
2022-10-26T07:09:17.037Z,24.40
2022-10-26T07:16:26.392Z,24.40
2022-10-26T07:19:11.052Z,24.40
2022-10-26T07:22:04.313Z,24.40
2022-10-26T07:25:42.425Z,24.40
2022-10-26T07:29:16.339Z,24.40
2022-10-26T07:36:07.992Z,24.40
2022-10-26T07:38:52.138Z,24.40
2022-10-26T07:42:10.898Z,24.40
2022-10-26T07:53:39.554Z,24.40
2022-10-26T08:01:25.876Z,24.50
2022-10-26T08:04:32.333Z,24.50
2022-10-26T08:07:09.002Z,24.60
2022-10-26T08:10:19.930Z,24.60
2022-10-26T08:13:30.472Z,24.60
2022-10-26T08:16:15.781Z,24.60
2022-10-26T08:19:13.128Z,24.60
2022-10-26T08:22:43.065Z,24.60
2022-10-26T08:26:04.957Z,24.60
2022-10-26T08:29:21.357Z,24.60
2022-10-26T08:32:15.756Z,24.60
2022-10-26T08:35:22.036Z,24.50
2022-10-26T08:38:15.484Z,24.50
2022-10-26T11:35:11.290Z,24.20
2022-10-26T12:51:43.368Z,24.30
2022-10-26T15:06:17.418Z,24.30
2022-10-26T15:09:47.187Z,24.30
2022-10-26T15:12:53.890Z,24.20
2022-10-26T15:15:59.919Z,24.20
2022-10-26T15:19:05.642Z,24.30
2022-10-26T15:21:53.762Z,24.30
2022-10-26T15:24:59.696Z,24.20
2022-10-26T15:28:12.037Z,24.30
2022-10-26T15:31:48.076Z,24.40
2022-10-26T15:34:48.943Z,24.30
2022-10-26T15:37:47.883Z,24.30
2022-10-26T15:40:42.934Z,24.30
2022-10-26T15:43:26.717Z,24.10
2022-10-26T15:46:29.903Z,24.10
2022-10-26T15:49:27.083Z,24.30
2022-10-26T15:52:35.965Z,24.30
2022-10-26T15:55:48.310Z,24.20
2022-10-26T15:58:54.339Z,24.30
2022-10-26T16:01:56.419Z,24.30
2022-10-26T16:04:50.267Z,24.20
2022-10-26T16:07:48.898Z,24.30
2022-10-26T16:11:18.462Z,24.40
2022-10-26T16:14:33.477Z,24.50
2022-10-26T16:17:40.672Z,24.60
2022-10-26T16:20:48.553Z,24.70
2022-10-26T16:23:48.576Z,24.60
2022-10-26T16:26:54.294Z,24.60
2022-10-26T16:29:51.438Z,24.70
2022-10-26T16:32:48.622Z,24.50
2022-10-26T16:35:48.374Z,24.40
2022-10-26T16:38:48.407Z,24.50
2022-10-26T16:41:54.441Z,24.50
2022-10-26T16:44:39.564Z,24.40
2022-10-26T16:47:36.806Z,24.40
2022-10-26T16:50:39.613Z,24.40
2022-10-26T16:53:39.637Z,24.40
2022-10-26T16:56:30.595Z,24.30
2022-10-26T16:59:42.936Z,24.40
2022-10-26T17:02:45.763Z,24.30
2022-10-26T17:05:42.996Z,24.20
2022-10-26T17:08:45.768Z,24.20
2022-10-26T17:11:43.051Z,24.20
2022-10-26T17:14:51.821Z,24.10
2022-10-26T17:17:56.112Z,24.20
2022-10-26T17:21:03.879Z,24.30
2022-10-26T17:24:15.911Z,24.10
2022-10-26T17:27:26.201Z,24.20
2022-10-26T17:30:39.977Z,24.30
2022-10-26T17:33:40.004Z,24.10
2022-10-26T17:36:52.034Z,24.10
2022-10-26T17:40:14.327Z,24.20
2022-10-26T17:47:25.402Z,24.20
2022-10-26T18:01:43.631Z,24.20
2022-10-26T18:20:55.359Z,24.40
2022-10-26T18:53:15.043Z,24.60
2022-10-26T19:17:03.384Z,24.70
2022-10-26T19:20:15.103Z,24.70
2022-10-26T19:23:27.438Z,24.70
2022-10-26T19:26:43.222Z,24.70
2022-10-26T19:29:51.496Z,24.80
2022-10-26T19:33:03.533Z,24.70
2022-10-26T19:36:15.565Z,24.70
2022-10-26T19:39:21.597Z,24.70
2022-10-26T19:42:33.628Z,24.80
2022-10-26T19:45:39.658Z,24.80
2022-10-26T19:48:51.687Z,24.80
2022-10-26T19:51:57.720Z,24.80
2022-10-26T19:55:09.757Z,24.80
2022-10-26T19:58:15.783Z,24.70
2022-10-26T20:01:27.874Z,24.70
2022-10-26T20:04:39.844Z,24.80
2022-10-26T20:07:51.876Z,24.80
2022-10-26T20:10:57.906Z,24.80
2022-10-26T20:14:09.933Z,24.80
2022-10-26T20:17:09.963Z,24.80
2022-10-26T20:20:27.993Z,24.80
2022-10-26T20:23:52.027Z,24.80
2022-10-26T20:27:22.069Z,24.80
2022-10-26T20:30:40.092Z,24.80
2022-10-26T20:33:53.338Z,24.80
2022-10-26T20:37:10.152Z,24.80
2022-10-26T20:40:28.187Z,24.80
2022-10-26T20:43:40.213Z,24.80
2022-10-26T20:46:39.871Z,24.70
2022-10-26T20:49:45.902Z,24.70
2022-10-26T20:52:57.928Z,24.80
2022-10-26T20:56:10.271Z,24.80
2022-10-26T20:59:28.326Z,24.80
2022-10-26T21:02:40.334Z,24.70
2022-10-26T21:05:46.050Z,24.70
2022-10-26T21:08:58.391Z,24.80
2022-10-26T21:11:58.112Z,24.70
2022-10-26T21:15:04.450Z,24.70
2022-10-26T21:18:10.171Z,24.70
2022-10-26T21:21:16.510Z,24.70
2022-10-26T21:24:28.255Z,24.70
2022-10-26T21:27:28.261Z,24.70
2022-10-26T21:30:40.293Z,24.70
2022-10-26T21:33:46.638Z,24.80
2022-10-26T21:36:52.354Z,24.70
2022-10-26T21:40:10.695Z,24.70
2022-10-26T21:43:10.463Z,24.70
2022-10-26T21:46:22.507Z,24.70
2022-10-26T21:49:34.807Z,24.70
2022-10-26T21:52:46.558Z,24.70
2022-10-26T21:56:04.849Z,24.70
2022-10-26T21:59:10.877Z,24.70
2022-10-26T22:02:16.720Z,24.70
2022-10-26T22:05:22.678Z,24.60
2022-10-26T22:08:28.709Z,24.60
2022-10-26T22:11:40.973Z,24.60
2022-10-26T22:14:53.078Z,24.70
2022-10-26T22:18:05.108Z,24.60
2022-10-26T22:21:17.150Z,24.70
2022-10-26T22:24:29.178Z,24.60
2022-10-26T22:27:35.205Z,24.70
2022-10-26T22:30:41.232Z,24.70
2022-10-26T22:34:01.976Z,24.70
2022-10-26T22:37:11.295Z,24.70
2022-10-26T22:40:23.327Z,24.60
2022-10-26T22:43:41.356Z,24.70
2022-10-26T22:46:53.384Z,24.70
2022-10-26T22:49:59.413Z,24.70
2022-10-26T22:53:11.441Z,24.60
2022-10-26T22:56:17.500Z,24.60
2022-10-26T22:59:29.504Z,24.60
2022-10-26T23:02:35.533Z,24.60
2022-10-26T23:05:47.565Z,24.60
2022-10-26T23:08:53.597Z,24.60
2022-10-26T23:12:05.627Z,24.60
2022-10-26T23:15:47.664Z,24.60
2022-10-26T23:45:22.147Z,24.60
